メインページ
METAR-TAF:

METAR-TAF

空港 :

サドバリー, オンタリオ州, カナダ

緯度: 46-37N, 経度: 080-48W, 海抜: 348m

現時点の気象観測

当レポートは36分前の10:28(UTC)に作成
北/北西の風 6kt
気温 -20°C
湿度 70%
気圧 1020 hPa
視程: 24.1km
高度1400ftの曇り

METAR: CYSB 231028Z 34006KT 15SM OVC014 M20/M24 A3011 RMK SC8 SLP232

時間: 06:04 (11:04 UTC)

予報

当レポートは3時間23分前の07:41(UTC)に作成
予報は23日の 08時(UTC)から 23日の 20時(UTC)まで有効
の風 8kt
視程: 10km
高度1500ftの曇り
小雪
23日の 08時(UTC)から 23日の 11時(UTC)まで一時的に
視程: 10km
高度1500ftの雲は散在している
高度8000ftの千切れ雲あり
23日の 1100時(UTC)から
北/北西の風 7kt
視程: 10km
高度2000ftの雲はほとんどない

TAF: CYSB 230741Z 2308/2320 35008KT P6SM -SN OVC015 TEMPO 2308/2311 P6SM NSW SCT015 BKN080 FM231100 34007KT P6SM FEW020 RMK NXT FCST BY 231400Z

4,000以上の空港の気象観測と天気予報(METAR報とTAF報)

利用可能な観測所は地図上に黄色い丸と赤い丸で示す。

丸の上にカーソルを重ねると観測所名を参照できる。

次にクリックすると気象観測と天気予報を参照できる。

マップの切り替え:黒色「×」印の緑ボタンをクリックして拡大、「-」印の緑ボタンをクリックして縮小、緑色の三角印をクリックして隣りの地図に切り替え


METAR-TAF: